VG00 weather

Mears Field
Eastville, Virginia, United States

Public forecast

Using degrees Fahrenheit for public forecast. Weather courtesy of forecast.io.

Closest aviation weather report (METAR) to Mears Field

Report is more than 2 hours old.

Closest report is Accomack County Airport, 18.8 nm (34.9 km) NNE. Retrieved 2020/08/06 11:55 UTC (4 hours ago):

KMFV 061155Z AUTO 18003KT 10SM SCT110 27/24 A3007 RMK AO2 LTG DSNT SE AND NW 6//// 7//// T02660237 10266 20235 PNO

Closest aviation forecast (TAF) to Mears Field

Forecast is more than 6 hours old.

Closest forecast is Langley Air Force Base, 26.2 nm (48.6 km) SW. Retrieved 2020/08/06 09:15 UTC (6 hours ago):

TAF KLFI 060900Z 0609/0715 VRB06KT 6000 BR BKN015 QNH3004INS BECMG 0614/0615 16009KT 9999 NSW BKN015 QNH3006INS TEMPO 0619/0701 19015G20KT 8000 -TSRA BKN012CB OVC019 BECMG 0712/0713 24012KT 9999 BKN020 QNH3004INS TX28/0618Z TN24/0609Z